Terminal Aerodrome Forecast
Issued by NWS Flagstaff, AZ

Current Version | Previous Version | Text Only | Print | Product List | Glossary On
Versions: 1 2 3 4 5 6 7 8 9 10 11 12 13 14 15 16 17 18 19 20 21 22
000
FTUS45 KFGZ 041514 AAA
TAFFLG
TAF AMD
KFLG 041514Z 0415/0512 VRB05KT P6SM BKN060 OVC080
     FM041600 13008KT 6SM -SHRA BKN035 OVC060
      TEMPO 0416/0418 4SM SHRA BR BKN025 OVC030
     FM041800 20008KT P6SM VCSH BKN030 OVC050
      TEMPO 0419/0423 VRB15G25KT 4SM -TSRA OVC030CB
     FM050200 VRB04KT 5SM -SHRA BR BKN025 OVC050=

USA.gov is the U.S. government's official web portal to all federal, state and local government web resources and services.